INFORMACIÓN METAR y TAF
METAR FOR LESA
ADDS - METARS form results

(1143 UTC 17 February 2019)
Data provider http://aviationweather.gov/metar/data/
 
METAR text: LESA 171130Z 00000KT CAVOK 12/01 Q1021
Conditions at: LESA (SALAMANCA (CIV/M, ES) observed 1130 UTC 17 February 2019
Temperature: 12.0°C (54°F)
Dewpoint: 1.0°C (34°F) [RH = 47%]
Pressure (altimeter): 30.15 inches Hg (1021.0 mb)
Winds: calm
Visibility: 6 or more miles (10+ km)
Ceiling: ceiling and visibility are OK
Clouds: unknown
Weather: no significant weather observed at this time

METAR text: LESA 171100Z VRB01KT CAVOK 10/02 Q1021
Conditions at: LESA (SALAMANCA (CIV/M, ES) observed 1100 UTC 17 February 2019
Temperature: 10.0°C (50°F)
Dewpoint: 2.0°C (36°F) [RH = 57%]
Pressure (altimeter): 30.15 inches Hg (1021.0 mb)
Winds: variable direction winds at 1 MPH (1 knots; 0.5 m/s)
Visibility: 6 or more miles (10+ km)
Ceiling: ceiling and visibility are OK
Clouds: unknown
Weather: no significant weather observed at this time

Forecast for: LESA (SALAMANCA (CIV/M, ES)
Text: TAF LESA 171100Z 1712/1812 VRB05KT CAVOK TX16/1715Z TN00/1807Z
Forecast period: 1200 UTC 17 February 2019 to 1200 UTC 18 February 2019
Forecast type: FROM: standard forecast or significant change
Winds: variable direction winds at 6 MPH (5 knots; 2.6 m/s)
Visibility: 6 or more miles 10+ km)
Ceiling: unknown
Clouds: missing
Weather: no significant weather forecast for this period
Text: TEMPO 1712/1719 20010KT
Forecast period: 1200 to 1900 UTC 17 February 2019
Forecast type: TEMPORARY: The following changes expected for less than half the time period
Winds: from the SSW (200 degrees) at 12 MPH (10 knots; 5.1 m/s)
Visibility: missing
Ceiling: unknown
Clouds: missing
Weather: no significant weather forecast for this period

 MAPA DE AEROPUERTO

 INFORMACIÓN DE PISTA
Pista 03 Longitud 8202 ft Ancho 197 ft
Elevación 2595 ft Umbral desplazado 0 ft Rumbo de pista 28
Pista 21 Longitud 8202 ft Ancho 197 ft
Elevación 2586 ft Umbral desplazado 0 ft Rumbo de pista 208
Pista 08 Longitud 6594 ft Ancho 400 ft
Elevación 2587 ft Umbral desplazado 0 ft Rumbo de pista 74
Pista 26 Longitud 6594 ft Ancho 400 ft
Elevación 2588 ft Umbral desplazado 0 ft Rumbo de pista 254

 FRECUANCIAS DEL AEROPUERTO
Tipo APP Nombre APP Frecuencia 124.4 MHZ
Tipo GND Nombre GND Frecuencia 121.85 MHZ
Tipo TWR Nombre TWR Frecuencia 139.3 MHZ

 RADIO AYUDAS DEL AEROPUERTO
Tipo VOR-DME Nombre Salamanca Frecuencia 112200 KHZ
Tipo NDB Nombre Salamanca Frecuencia 399 KHZ
Tipo NDB Nombre Salamanca Frecuencia 423 KHZ
Tipo TACAN Nombre Salamanca Frecuencia 113300 KHZ



Powered by Virtual Airlines Manager [v2.6.2]